createdAt,value
2022-11-09T00:00:23.627Z,4.80
2022-11-09T00:05:08.267Z,4.70
2022-11-09T00:09:53.157Z,4.80
2022-11-09T00:14:36.829Z,4.90
2022-11-09T00:19:20.653Z,5.10
2022-11-09T00:24:04.070Z,4.80
2022-11-09T00:28:49.312Z,4.70
2022-11-09T00:33:33.342Z,4.50
2022-11-09T00:38:16.709Z,4.70
2022-11-09T00:43:00.138Z,4.60
2022-11-09T00:47:46.230Z,4.40
2022-11-09T00:52:29.833Z,4.70
2022-11-09T00:57:14.273Z,4.80
2022-11-09T01:01:57.782Z,4.80
2022-11-09T01:06:42.717Z,4.60
2022-11-09T01:11:26.178Z,4.60
2022-11-09T01:16:12.161Z,4.50
2022-11-09T01:20:55.620Z,4.50
2022-11-09T01:25:40.731Z,4.40
2022-11-09T01:30:24.179Z,4.20
2022-11-09T01:35:08.262Z,4.30
2022-11-09T01:39:51.670Z,4.20
2022-11-09T01:44:39.970Z,4.20
2022-11-09T01:49:31.869Z,4.40
2022-11-09T01:54:19.374Z,4.50
2022-11-09T01:59:05.460Z,4.50
2022-11-09T02:03:55.634Z,5.00
2022-11-09T02:08:40.389Z,5.90
2022-11-09T02:13:26.352Z,6.50
2022-11-09T02:18:10.317Z,9.20
2022-11-09T02:22:55.353Z,10.60
2022-11-09T02:27:39.631Z,11.20
2022-11-09T02:32:25.985Z,11.30
2022-11-09T02:43:14.995Z,11.00
2022-11-09T02:47:58.603Z,9.30
2022-11-09T02:52:42.023Z,8.60
2022-11-09T02:57:25.597Z,8.00
2022-11-09T03:02:10.941Z,7.50
2022-11-09T03:06:54.580Z,7.60
2022-11-09T03:11:38.691Z,10.50
2022-11-09T03:16:22.061Z,11.30
2022-11-09T03:21:07.804Z,11.60
2022-11-09T03:25:51.367Z,11.40
2022-11-09T03:30:35.351Z,10.60
2022-11-09T03:35:18.843Z,9.50
2022-11-09T03:40:03.738Z,8.70
2022-11-09T03:44:47.137Z,8.20
2022-11-09T03:49:30.765Z,8.20
2022-11-09T03:54:14.239Z,8.30
2022-11-09T03:58:59.108Z,8.30
2022-11-09T04:03:42.557Z,8.20
2022-11-09T04:08:25.961Z,8.10
2022-11-09T04:13:09.618Z,8.00
2022-11-09T04:17:58.900Z,8.00
2022-11-09T04:22:42.336Z,7.90
2022-11-09T04:27:25.822Z,7.70
2022-11-09T04:32:09.392Z,7.60
2022-11-09T04:36:54.347Z,7.60
2022-11-09T04:41:37.955Z,7.70
2022-11-09T04:46:21.512Z,7.70
2022-11-09T04:51:06.569Z,7.70
2022-11-09T04:55:52.756Z,7.70
2022-11-09T05:00:36.844Z,7.60
2022-11-09T05:05:20.268Z,7.60
2022-11-09T05:10:03.793Z,7.60
2022-11-09T05:14:49.024Z,7.50
2022-11-09T05:19:32.538Z,7.60
2022-11-09T05:24:16.146Z,7.70
2022-11-09T05:29:00.139Z,7.80
2022-11-09T05:33:45.076Z,7.80
2022-11-09T05:38:28.578Z,7.90
2022-11-09T05:43:12.029Z,8.00
2022-11-09T05:47:55.542Z,7.90
2022-11-09T05:52:40.664Z,8.10
2022-11-09T05:57:24.458Z,8.00
2022-11-09T06:02:07.993Z,7.90
2022-11-09T06:06:51.653Z,7.80
2022-11-09T06:11:36.600Z,7.80
2022-11-09T06:16:20.048Z,7.70
2022-11-09T06:21:05.709Z,7.60
2022-11-09T06:25:51.191Z,7.50
2022-11-09T06:30:36.039Z,7.50
2022-11-09T06:35:19.518Z,7.70
2022-11-09T06:40:03.195Z,7.90
2022-11-09T06:44:46.640Z,7.90
2022-11-09T06:49:31.531Z,8.20
2022-11-09T06:54:15.025Z,8.30
2022-11-09T06:58:58.630Z,8.30
2022-11-09T07:03:42.172Z,8.30
2022-11-09T07:08:27.069Z,8.50
2022-11-09T07:13:11.394Z,8.50
2022-11-09T07:17:58.232Z,8.60
2022-11-09T07:22:42.212Z,8.80
2022-11-09T07:27:28.302Z,9.00
2022-11-09T07:32:11.983Z,9.20
2022-11-09T07:36:55.541Z,9.30
2022-11-09T07:41:38.998Z,9.50
2022-11-09T07:46:23.794Z,9.60
2022-11-09T07:51:07.538Z,10.00
2022-11-09T07:55:59.041Z,10.20
2022-11-09T08:00:44.089Z,10.10
2022-11-09T08:05:30.274Z,10.40
2022-11-09T08:10:13.846Z,10.60
2022-11-09T08:14:57.331Z,11.00
2022-11-09T08:19:40.889Z,11.30
2022-11-09T08:24:26.373Z,11.20
2022-11-09T08:29:09.816Z,10.90
2022-11-09T08:33:54.007Z,10.80
2022-11-09T08:38:37.595Z,10.70
2022-11-09T08:43:22.483Z,11.10
2022-11-09T08:48:06.953Z,12.10
2022-11-09T08:52:50.535Z,11.30
2022-11-09T08:57:34.921Z,11.00
2022-11-09T09:02:20.863Z,11.10
2022-11-09T09:07:04.418Z,11.30
2022-11-09T09:11:47.962Z,11.50
2022-11-09T09:16:31.934Z,11.80
2022-11-09T09:21:17.312Z,12.00
2022-11-09T09:26:00.842Z,12.70
2022-11-09T09:30:44.296Z,13.80
2022-11-09T09:35:28.326Z,13.70
2022-11-09T09:40:25.265Z,14.10
2022-11-09T09:45:15.034Z,13.80
2022-11-09T09:50:04.240Z,13.40
2022-11-09T09:54:55.328Z,13.30
2022-11-09T09:59:43.780Z,13.30
2022-11-09T10:04:36.115Z,13.50
2022-11-09T10:09:31.972Z,13.90
2022-11-09T10:14:30.180Z,14.50
2022-11-09T10:19:40.687Z,14.70
2022-11-09T10:24:33.602Z,15.20
2022-11-09T10:29:24.072Z,15.50
2022-11-09T10:34:18.197Z,15.60
2022-11-09T10:39:03.594Z,15.40
2022-11-09T10:43:47.154Z,15.00
2022-11-09T10:48:36.048Z,14.80
2022-11-09T10:53:21.648Z,15.30
2022-11-09T10:58:31.594Z,15.50
2022-11-09T11:03:19.215Z,15.40
2022-11-09T11:08:24.356Z,15.10
2022-11-09T11:13:24.607Z,14.30
2022-11-09T11:18:17.747Z,13.60
2022-11-09T11:23:13.293Z,13.50
2022-11-09T11:28:05.393Z,13.40
2022-11-09T11:32:51.105Z,13.50
2022-11-09T11:37:48.354Z,13.60
2022-11-09T11:42:49.074Z,13.80
2022-11-09T11:47:42.389Z,13.90
2022-11-09T11:52:35.077Z,13.90
2022-11-09T11:57:35.409Z,14.50
2022-11-09T12:02:48.558Z,14.60
2022-11-09T12:07:39.247Z,14.60
2022-11-09T12:12:35.778Z,14.70
2022-11-09T12:17:32.075Z,14.90
2022-11-09T12:22:32.825Z,15.00
2022-11-09T12:27:41.626Z,14.80
2022-11-09T12:32:37.793Z,14.50
2022-11-09T12:37:25.647Z,14.30
2022-11-09T12:42:16.555Z,14.30
2022-11-09T12:47:07.439Z,14.20
2022-11-09T12:51:54.307Z,14.10
2022-11-09T12:56:48.351Z,14.00
2022-11-09T13:01:52.517Z,14.00
2022-11-09T13:06:37.564Z,13.90
2022-11-09T13:11:23.899Z,13.70
2022-11-09T13:16:36.263Z,13.60
2022-11-09T13:21:41.060Z,13.50
2022-11-09T13:26:46.625Z,13.40
2022-11-09T13:32:16.507Z,13.30
2022-11-09T13:37:33.456Z,13.30
2022-11-09T13:42:34.017Z,13.20
2022-11-09T13:47:26.743Z,13.10
2022-11-09T13:52:44.012Z,13.00
2022-11-09T13:57:29.649Z,12.80
2022-11-09T14:02:20.216Z,12.70
2022-11-09T14:07:06.793Z,12.60
2022-11-09T14:12:03.544Z,12.60
2022-11-09T14:16:58.403Z,12.50
2022-11-09T14:21:46.978Z,12.40
2022-11-09T14:26:31.329Z,13.20
2022-11-09T14:31:26.529Z,13.80
2022-11-09T14:36:15.315Z,13.90
2022-11-09T14:40:59.937Z,13.40
2022-11-09T14:45:50.401Z,13.50
2022-11-09T14:50:38.476Z,14.00
2022-11-09T14:55:25.818Z,13.50
2022-11-09T15:00:27.967Z,12.90
2022-11-09T15:05:34.203Z,12.40
2022-11-09T15:10:24.381Z,12.30
2022-11-09T15:15:09.474Z,12.10
2022-11-09T15:19:55.575Z,11.90
2022-11-09T15:24:49.668Z,11.80
2022-11-09T15:29:42.731Z,11.70
2022-11-09T15:34:28.960Z,11.60
2022-11-09T15:39:17.825Z,11.50
2022-11-09T15:44:01.554Z,11.40
2022-11-09T15:48:46.766Z,11.40
2022-11-09T15:53:30.472Z,11.30
2022-11-09T15:58:16.505Z,11.30
2022-11-09T16:03:00.176Z,11.20
2022-11-09T16:07:53.445Z,11.20
2022-11-09T16:12:42.529Z,11.20
2022-11-09T16:17:31.586Z,11.10
2022-11-09T16:22:15.792Z,11.10
2022-11-09T16:27:02.086Z,11.10
2022-11-09T16:31:51.953Z,11.10
2022-11-09T16:36:40.588Z,11.10
2022-11-09T16:41:27.447Z,11.10
2022-11-09T16:46:19.741Z,11.00
2022-11-09T16:51:04.050Z,11.00
2022-11-09T16:55:48.388Z,10.90
2022-11-09T17:00:55.736Z,10.90
2022-11-09T17:05:37.923Z,10.80
2022-11-09T17:10:29.297Z,10.80
2022-11-09T17:15:13.982Z,10.70
2022-11-09T17:19:58.070Z,10.70
2022-11-09T17:24:43.777Z,10.70
2022-11-09T17:29:27.808Z,10.70
2022-11-09T17:34:12.873Z,10.70
2022-11-09T17:39:02.016Z,10.70
2022-11-09T17:43:47.986Z,10.60
2022-11-09T17:48:33.211Z,10.60
2022-11-09T17:53:20.646Z,10.50
2022-11-09T17:58:05.386Z,10.50
2022-11-09T18:02:52.379Z,10.60
2022-11-09T18:07:37.541Z,10.60
2022-11-09T18:12:22.017Z,10.50
2022-11-09T18:17:10.021Z,10.50
2022-11-09T18:21:56.610Z,10.50
2022-11-09T18:26:41.135Z,10.50
2022-11-09T18:31:30.011Z,10.50
2022-11-09T18:36:17.562Z,10.50
2022-11-09T18:41:07.739Z,10.50
2022-11-09T18:45:57.477Z,10.50
2022-11-09T18:50:45.509Z,10.50
2022-11-09T18:55:33.379Z,10.50
2022-11-09T19:00:21.264Z,10.40
2022-11-09T19:05:11.410Z,10.40
2022-11-09T19:09:56.920Z,10.40
2022-11-09T19:14:44.650Z,10.40
2022-11-09T19:19:39.126Z,10.40
2022-11-09T19:24:27.068Z,10.40
2022-11-09T19:29:12.663Z,10.40
2022-11-09T19:33:57.482Z,10.30
2022-11-09T19:38:45.395Z,10.30
2022-11-09T19:43:31.611Z,10.30
2022-11-09T19:48:16.379Z,10.30
2022-11-09T19:53:01.386Z,10.30
2022-11-09T19:57:47.197Z,10.30
2022-11-09T20:02:33.166Z,10.30
2022-11-09T20:07:18.126Z,10.30
2022-11-09T20:12:21.424Z,10.40
2022-11-09T20:17:07.595Z,10.40
2022-11-09T20:21:53.979Z,10.40
2022-11-09T20:26:38.529Z,10.40
2022-11-09T20:31:26.329Z,10.40
2022-11-09T20:36:13.101Z,10.40
2022-11-09T20:40:58.206Z,10.40
2022-11-09T20:45:43.286Z,10.40
2022-11-09T20:50:28.182Z,10.30
2022-11-09T20:55:14.741Z,10.30
2022-11-09T21:00:03.503Z,10.30
2022-11-09T21:04:51.889Z,10.30
2022-11-09T21:09:36.724Z,10.30
2022-11-09T21:14:22.553Z,10.30
2022-11-09T21:19:07.539Z,10.30
2022-11-09T21:24:10.462Z,10.30
2022-11-09T21:29:14.110Z,10.30
2022-11-09T21:33:59.593Z,10.30
2022-11-09T21:38:43.625Z,10.20
2022-11-09T21:43:27.329Z,10.20
2022-11-09T21:48:10.825Z,10.30
2022-11-09T21:52:55.768Z,10.30
2022-11-09T21:57:41.281Z,10.30
2022-11-09T22:02:25.054Z,10.30
2022-11-09T22:07:09.582Z,10.20
2022-11-09T22:12:12.268Z,10.30
2022-11-09T22:16:55.787Z,10.30
2022-11-09T22:21:42.444Z,10.30
2022-11-09T22:26:26.411Z,10.30
2022-11-09T22:31:12.084Z,10.30
2022-11-09T22:35:56.208Z,10.40
2022-11-09T22:40:39.734Z,10.40
2022-11-09T22:45:23.362Z,10.40
2022-11-09T22:50:08.976Z,10.40
2022-11-09T22:54:52.713Z,10.30
2022-11-09T22:59:36.301Z,10.30
2022-11-09T23:04:19.992Z,10.30
2022-11-09T23:09:05.609Z,10.30
2022-11-09T23:13:53.541Z,10.30
2022-11-09T23:18:56.059Z,10.20
2022-11-09T23:23:40.258Z,10.20
2022-11-09T23:28:25.407Z,10.10
2022-11-09T23:33:09.086Z,10.20
2022-11-09T23:37:59.807Z,10.10
2022-11-09T23:42:43.215Z,10.20
2022-11-09T23:47:28.059Z,10.20
2022-11-09T23:52:12.576Z,10.10
2022-11-09T23:56:56.244Z,10.10
